sensor_id;sensor_type;location;lat;lon;timestamp;P1;durP1;ratioP1;P2;durP2;ratioP2
63801;SDS011;49949;43.060;25.624;2023-04-06T00:00:31;0.17;;;0.17;;
63801;SDS011;49949;43.060;25.624;2023-04-06T00:02:57;0.30;;;0.30;;
63801;SDS011;49949;43.060;25.624;2023-04-06T00:05:23;0.10;;;0.10;;
63801;SDS011;49949;43.060;25.624;2023-04-06T00:07:48;0.10;;;0.10;;
63801;SDS011;49949;43.060;25.624;2023-04-06T00:10:15;0.10;;;0.10;;
63801;SDS011;49949;43.060;25.624;2023-04-06T00:12:41;0.20;;;0.20;;
63801;SDS011;49949;43.060;25.624;2023-04-06T00:15:07;0.00;;;0.00;;
63801;SDS011;49949;43.060;25.624;2023-04-06T00:17:33;0.10;;;0.10;;
63801;SDS011;49949;43.060;25.624;2023-04-06T00:19:59;0.10;;;0.10;;
63801;SDS011;49949;43.060;25.624;2023-04-06T00:22:25;0.10;;;0.10;;
63801;SDS011;49949;43.060;25.624;2023-04-06T00:24:51;0.10;;;0.10;;
63801;SDS011;49949;43.060;25.624;2023-04-06T00:27:16;1.00;;;0.75;;
63801;SDS011;49949;43.060;25.624;2023-04-06T00:29:43;0.10;;;0.10;;
63801;SDS011;49949;43.060;25.624;2023-04-06T00:32:09;0.10;;;0.10;;
63801;SDS011;49949;43.060;25.624;2023-04-06T00:34:35;0.10;;;0.10;;
63801;SDS011;49949;43.060;25.624;2023-04-06T00:37:01;0.10;;;0.10;;
63801;SDS011;49949;43.060;25.624;2023-04-06T00:39:26;0.20;;;0.20;;
63801;SDS011;49949;43.060;25.624;2023-04-06T00:41:52;0.20;;;0.20;;
63801;SDS011;49949;43.060;25.624;2023-04-06T00:44:20;0.38;;;0.38;;
63801;SDS011;49949;43.060;25.624;2023-04-06T00:46:46;0.38;;;0.38;;
63801;SDS011;49949;43.060;25.624;2023-04-06T00:49:12;0.13;;;0.13;;
63801;SDS011;49949;43.060;25.624;2023-04-06T00:51:38;0.17;;;0.17;;
63801;SDS011;49949;43.060;25.624;2023-04-06T00:54:03;0.10;;;0.10;;
63801;SDS011;49949;43.060;25.624;2023-04-06T00:56:30;0.20;;;0.20;;
63801;SDS011;49949;43.060;25.624;2023-04-06T00:58:56;0.30;;;0.30;;
63801;SDS011;49949;43.060;25.624;2023-04-06T01:01:23;0.45;;;0.25;;
63801;SDS011;49949;43.060;25.624;2023-04-06T01:03:49;0.10;;;0.10;;
63801;SDS011;49949;43.060;25.624;2023-04-06T01:06:15;0.13;;;0.13;;
63801;SDS011;49949;43.060;25.624;2023-04-06T01:08:41;0.20;;;0.20;;
63801;SDS011;49949;43.060;25.624;2023-04-06T01:11:07;0.10;;;0.10;;
63801;SDS011;49949;43.060;25.624;2023-04-06T01:13:32;0.10;;;0.10;;
63801;SDS011;49949;43.060;25.624;2023-04-06T01:15:58;0.10;;;0.10;;
63801;SDS011;49949;43.060;25.624;2023-04-06T01:18:28;0.17;;;0.17;;
63801;SDS011;49949;43.060;25.624;2023-04-06T01:20:54;0.10;;;0.10;;
63801;SDS011;49949;43.060;25.624;2023-04-06T01:23:20;0.10;;;0.10;;
63801;SDS011;49949;43.060;25.624;2023-04-06T01:25:45;0.10;;;0.10;;
63801;SDS011;49949;43.060;25.624;2023-04-06T01:28:11;0.10;;;0.10;;
63801;SDS011;49949;43.060;25.624;2023-04-06T01:30:37;0.10;;;0.10;;
63801;SDS011;49949;43.060;25.624;2023-04-06T01:33:02;0.10;;;0.10;;
63801;SDS011;49949;43.060;25.624;2023-04-06T01:35:30;0.10;;;0.10;;
63801;SDS011;49949;43.060;25.624;2023-04-06T01:37:56;0.10;;;0.10;;
63801;SDS011;49949;43.060;25.624;2023-04-06T01:40:22;0.10;;;0.10;;
63801;SDS011;49949;43.060;25.624;2023-04-06T01:42:47;0.10;;;0.10;;
63801;SDS011;49949;43.060;25.624;2023-04-06T01:45:13;0.25;;;0.25;;
63801;SDS011;49949;43.060;25.624;2023-04-06T01:47:39;0.20;;;0.20;;
63801;SDS011;49949;43.060;25.624;2023-04-06T01:50:05;0.10;;;0.10;;
63801;SDS011;49949;43.060;25.624;2023-04-06T01:52:35;0.68;;;0.68;;
63801;SDS011;49949;43.060;25.624;2023-04-06T01:55:00;0.10;;;0.10;;
63801;SDS011;49949;43.060;25.624;2023-04-06T01:57:26;0.20;;;0.20;;
63801;SDS011;49949;43.060;25.624;2023-04-06T01:59:52;0.10;;;0.10;;
63801;SDS011;49949;43.060;25.624;2023-04-06T02:02:18;0.10;;;0.10;;
63801;SDS011;49949;43.060;25.624;2023-04-06T02:04:43;0.20;;;0.20;;
63801;SDS011;49949;43.060;25.624;2023-04-06T02:07:09;4.13;;;1.45;;
63801;SDS011;49949;43.060;25.624;2023-04-06T02:09:35;0.10;;;0.10;;
63801;SDS011;49949;43.060;25.624;2023-04-06T02:12:01;0.10;;;0.10;;
63801;SDS011;49949;43.060;25.624;2023-04-06T02:14:27;0.10;;;0.10;;
63801;SDS011;49949;43.060;25.624;2023-04-06T02:16:53;0.10;;;0.10;;
63801;SDS011;49949;43.060;25.624;2023-04-06T02:19:19;0.20;;;0.20;;
63801;SDS011;49949;43.060;25.624;2023-04-06T02:21:44;0.10;;;0.10;;
63801;SDS011;49949;43.060;25.624;2023-04-06T02:24:10;0.10;;;0.10;;
63801;SDS011;49949;43.060;25.624;2023-04-06T02:26:36;0.17;;;0.17;;
63801;SDS011;49949;43.060;25.624;2023-04-06T02:29:01;0.77;;;0.73;;
63801;SDS011;49949;43.060;25.624;2023-04-06T02:31:27;0.20;;;0.20;;
63801;SDS011;49949;43.060;25.624;2023-04-06T02:33:53;0.10;;;0.10;;
63801;SDS011;49949;43.060;25.624;2023-04-06T02:36:19;0.30;;;0.30;;
63801;SDS011;49949;43.060;25.624;2023-04-06T02:38:45;0.10;;;0.10;;
63801;SDS011;49949;43.060;25.624;2023-04-06T02:41:10;0.10;;;0.10;;
63801;SDS011;49949;43.060;25.624;2023-04-06T02:43:36;0.10;;;0.10;;
63801;SDS011;49949;43.060;25.624;2023-04-06T02:46:02;0.10;;;0.10;;
63801;SDS011;49949;43.060;25.624;2023-04-06T02:48:27;0.60;;;0.30;;
63801;SDS011;49949;43.060;25.624;2023-04-06T02:50:53;0.10;;;0.10;;
63801;SDS011;49949;43.060;25.624;2023-04-06T02:53:19;0.10;;;0.10;;
63801;SDS011;49949;43.060;25.624;2023-04-06T02:55:45;0.10;;;0.10;;
63801;SDS011;49949;43.060;25.624;2023-04-06T02:58:12;0.10;;;0.10;;
63801;SDS011;49949;43.060;25.624;2023-04-06T03:00:37;0.10;;;0.10;;
63801;SDS011;49949;43.060;25.624;2023-04-06T03:03:03;0.10;;;0.10;;
63801;SDS011;49949;43.060;25.624;2023-04-06T03:05:29;0.10;;;0.10;;
63801;SDS011;49949;43.060;25.624;2023-04-06T03:07:55;0.65;;;0.65;;
63801;SDS011;49949;43.060;25.624;2023-04-06T03:10:21;0.10;;;0.10;;
63801;SDS011;49949;43.060;25.624;2023-04-06T03:12:47;0.10;;;0.10;;
63801;SDS011;49949;43.060;25.624;2023-04-06T03:15:12;0.10;;;0.10;;
63801;SDS011;49949;43.060;25.624;2023-04-06T03:17:38;0.10;;;0.10;;
63801;SDS011;49949;43.060;25.624;2023-04-06T03:20:04;0.10;;;0.10;;
63801;SDS011;49949;43.060;25.624;2023-04-06T03:22:30;0.13;;;0.13;;
63801;SDS011;49949;43.060;25.624;2023-04-06T03:24:56;0.10;;;0.10;;
63801;SDS011;49949;43.060;25.624;2023-04-06T03:27:21;0.10;;;0.10;;
63801;SDS011;49949;43.060;25.624;2023-04-06T03:29:47;0.10;;;0.10;;
63801;SDS011;49949;43.060;25.624;2023-04-06T03:32:13;0.10;;;0.10;;
63801;SDS011;49949;43.060;25.624;2023-04-06T03:34:39;0.10;;;0.10;;
63801;SDS011;49949;43.060;25.624;2023-04-06T03:37:04;0.20;;;0.20;;
63801;SDS011;49949;43.060;25.624;2023-04-06T03:39:30;0.10;;;0.10;;
63801;SDS011;49949;43.060;25.624;2023-04-06T03:41:56;0.10;;;0.10;;
63801;SDS011;49949;43.060;25.624;2023-04-06T03:44:22;0.10;;;0.10;;
63801;SDS011;49949;43.060;25.624;2023-04-06T03:46:48;0.10;;;0.10;;
63801;SDS011;49949;43.060;25.624;2023-04-06T03:49:13;0.17;;;0.17;;
63801;SDS011;49949;43.060;25.624;2023-04-06T03:51:39;0.17;;;0.17;;
63801;SDS011;49949;43.060;25.624;2023-04-06T03:54:05;0.10;;;0.10;;
63801;SDS011;49949;43.060;25.624;2023-04-06T03:56:30;0.10;;;0.10;;
63801;SDS011;49949;43.060;25.624;2023-04-06T03:58:56;0.15;;;0.15;;
63801;SDS011;49949;43.060;25.624;2023-04-06T04:01:22;0.13;;;0.13;;
63801;SDS011;49949;43.060;25.624;2023-04-06T04:03:48;1.85;;;0.85;;
63801;SDS011;49949;43.060;25.624;2023-04-06T04:06:13;0.15;;;0.15;;
63801;SDS011;49949;43.060;25.624;2023-04-06T04:08:39;0.10;;;0.10;;
63801;SDS011;49949;43.060;25.624;2023-04-06T04:11:05;0.50;;;0.50;;
63801;SDS011;49949;43.060;25.624;2023-04-06T04:13:30;0.10;;;0.10;;
63801;SDS011;49949;43.060;25.624;2023-04-06T04:15:56;0.20;;;0.20;;
63801;SDS011;49949;43.060;25.624;2023-04-06T04:18:22;0.30;;;0.30;;
63801;SDS011;49949;43.060;25.624;2023-04-06T04:20:47;0.10;;;0.10;;
63801;SDS011;49949;43.060;25.624;2023-04-06T04:23:13;0.30;;;0.30;;
63801;SDS011;49949;43.060;25.624;2023-04-06T04:25:39;0.47;;;0.47;;
63801;SDS011;49949;43.060;25.624;2023-04-06T04:28:05;0.10;;;0.10;;
63801;SDS011;49949;43.060;25.624;2023-04-06T04:30:31;0.35;;;0.35;;
63801;SDS011;49949;43.060;25.624;2023-04-06T04:32:57;0.10;;;0.10;;
63801;SDS011;49949;43.060;25.624;2023-04-06T04:35:22;0.10;;;0.10;;
63801;SDS011;49949;43.060;25.624;2023-04-06T04:37:48;0.20;;;0.20;;
63801;SDS011;49949;43.060;25.624;2023-04-06T04:40:14;0.73;;;0.73;;
63801;SDS011;49949;43.060;25.624;2023-04-06T04:42:41;0.10;;;0.10;;
63801;SDS011;49949;43.060;25.624;2023-04-06T04:45:07;0.13;;;0.13;;
63801;SDS011;49949;43.060;25.624;2023-04-06T04:47:33;0.10;;;0.10;;
63801;SDS011;49949;43.060;25.624;2023-04-06T04:49:59;0.10;;;0.10;;
63801;SDS011;49949;43.060;25.624;2023-04-06T04:52:24;0.55;;;0.20;;
63801;SDS011;49949;43.060;25.624;2023-04-06T04:54:50;0.10;;;0.10;;
63801;SDS011;49949;43.060;25.624;2023-04-06T04:57:16;0.10;;;0.10;;
63801;SDS011;49949;43.060;25.624;2023-04-06T04:59:42;0.10;;;0.10;;
63801;SDS011;49949;43.060;25.624;2023-04-06T05:02:08;0.10;;;0.10;;
63801;SDS011;49949;43.060;25.624;2023-04-06T05:04:34;0.10;;;0.10;;
63801;SDS011;49949;43.060;25.624;2023-04-06T05:07:06;0.10;;;0.10;;
63801;SDS011;49949;43.060;25.624;2023-04-06T05:09:33;0.10;;;0.10;;
63801;SDS011;49949;43.060;25.624;2023-04-06T05:11:59;0.10;;;0.10;;
63801;SDS011;49949;43.060;25.624;2023-04-06T05:14:25;0.10;;;0.10;;
63801;SDS011;49949;43.060;25.624;2023-04-06T05:16:52;0.10;;;0.10;;
63801;SDS011;49949;43.060;25.624;2023-04-06T05:19:17;0.10;;;0.10;;
63801;SDS011;49949;43.060;25.624;2023-04-06T05:21:43;0.20;;;0.20;;
63801;SDS011;49949;43.060;25.624;2023-04-06T05:24:09;0.10;;;0.10;;
63801;SDS011;49949;43.060;25.624;2023-04-06T05:26:35;0.17;;;0.17;;
63801;SDS011;49949;43.060;25.624;2023-04-06T05:29:01;0.10;;;0.10;;
63801;SDS011;49949;43.060;25.624;2023-04-06T05:31:27;0.10;;;0.10;;
63801;SDS011;49949;43.060;25.624;2023-04-06T05:33:52;0.10;;;0.10;;
63801;SDS011;49949;43.060;25.624;2023-04-06T05:36:18;2.95;;;0.55;;
63801;SDS011;49949;43.060;25.624;2023-04-06T05:38:44;0.10;;;0.10;;
63801;SDS011;49949;43.060;25.624;2023-04-06T05:41:10;0.32;;;0.32;;
63801;SDS011;49949;43.060;25.624;2023-04-06T05:43:36;0.10;;;0.10;;
63801;SDS011;49949;43.060;25.624;2023-04-06T05:46:02;0.22;;;0.22;;
63801;SDS011;49949;43.060;25.624;2023-04-06T05:48:28;0.05;;;0.05;;
63801;SDS011;49949;43.060;25.624;2023-04-06T05:50:54;0.10;;;0.10;;
63801;SDS011;49949;43.060;25.624;2023-04-06T05:53:19;0.32;;;0.32;;
63801;SDS011;49949;43.060;25.624;2023-04-06T05:55:46;0.17;;;0.17;;
63801;SDS011;49949;43.060;25.624;2023-04-06T05:58:12;0.15;;;0.15;;
63801;SDS011;49949;43.060;25.624;2023-04-06T06:00:38;0.10;;;0.10;;
63801;SDS011;49949;43.060;25.624;2023-04-06T06:03:03;0.15;;;0.15;;
63801;SDS011;49949;43.060;25.624;2023-04-06T06:05:30;0.10;;;0.10;;
63801;SDS011;49949;43.060;25.624;2023-04-06T06:07:56;0.10;;;0.10;;
63801;SDS011;49949;43.060;25.624;2023-04-06T06:10:22;0.10;;;0.10;;
63801;SDS011;49949;43.060;25.624;2023-04-06T06:12:48;0.10;;;0.10;;
63801;SDS011;49949;43.060;25.624;2023-04-06T06:15:13;0.10;;;0.10;;
63801;SDS011;49949;43.060;25.624;2023-04-06T06:17:39;0.10;;;0.10;;
63801;SDS011;49949;43.060;25.624;2023-04-06T06:20:06;0.20;;;0.20;;
63801;SDS011;49949;43.060;25.624;2023-04-06T06:22:32;0.13;;;0.13;;
63801;SDS011;49949;43.060;25.624;2023-04-06T06:24:58;0.10;;;0.10;;
63801;SDS011;49949;43.060;25.624;2023-04-06T06:27:23;0.20;;;0.20;;
63801;SDS011;49949;43.060;25.624;2023-04-06T06:29:49;0.10;;;0.10;;
63801;SDS011;49949;43.060;25.624;2023-04-06T06:32:15;0.20;;;0.20;;
63801;SDS011;49949;43.060;25.624;2023-04-06T06:34:41;0.10;;;0.10;;
63801;SDS011;49949;43.060;25.624;2023-04-06T06:37:06;0.30;;;0.30;;
63801;SDS011;49949;43.060;25.624;2023-04-06T06:39:32;0.10;;;0.10;;
63801;SDS011;49949;43.060;25.624;2023-04-06T06:41:58;0.25;;;0.25;;
63801;SDS011;49949;43.060;25.624;2023-04-06T06:44:26;0.10;;;0.10;;
63801;SDS011;49949;43.060;25.624;2023-04-06T06:46:52;0.30;;;0.30;;
63801;SDS011;49949;43.060;25.624;2023-04-06T06:49:18;3.92;;;0.55;;
63801;SDS011;49949;43.060;25.624;2023-04-06T06:51:44;0.10;;;0.10;;
63801;SDS011;49949;43.060;25.624;2023-04-06T06:54:11;0.38;;;0.38;;
63801;SDS011;49949;43.060;25.624;2023-04-06T06:56:37;0.10;;;0.10;;
63801;SDS011;49949;43.060;25.624;2023-04-06T06:59:03;0.22;;;0.22;;
63801;SDS011;49949;43.060;25.624;2023-04-06T07:01:31;0.10;;;0.10;;
63801;SDS011;49949;43.060;25.624;2023-04-06T07:03:58;0.75;;;0.75;;
63801;SDS011;49949;43.060;25.624;2023-04-06T07:06:24;0.10;;;0.10;;
63801;SDS011;49949;43.060;25.624;2023-04-06T07:08:49;0.20;;;0.20;;
63801;SDS011;49949;43.060;25.624;2023-04-06T07:11:15;0.73;;;0.73;;
63801;SDS011;49949;43.060;25.624;2023-04-06T07:13:42;0.10;;;0.10;;
63801;SDS011;49949;43.060;25.624;2023-04-06T07:16:08;0.38;;;0.38;;
63801;SDS011;49949;43.060;25.624;2023-04-06T07:18:34;0.10;;;0.10;;
63801;SDS011;49949;43.060;25.624;2023-04-06T07:21:00;0.20;;;0.20;;
63801;SDS011;49949;43.060;25.624;2023-04-06T07:23:25;0.38;;;0.38;;
63801;SDS011;49949;43.060;25.624;2023-04-06T07:25:51;0.10;;;0.10;;
63801;SDS011;49949;43.060;25.624;2023-04-06T07:28:18;0.10;;;0.10;;
63801;SDS011;49949;43.060;25.624;2023-04-06T07:30:44;0.10;;;0.10;;
63801;SDS011;49949;43.060;25.624;2023-04-06T07:33:10;0.10;;;0.10;;
63801;SDS011;49949;43.060;25.624;2023-04-06T07:35:37;0.32;;;0.32;;
63801;SDS011;49949;43.060;25.624;2023-04-06T07:38:03;0.10;;;0.10;;
63801;SDS011;49949;43.060;25.624;2023-04-06T07:40:29;0.30;;;0.30;;
63801;SDS011;49949;43.060;25.624;2023-04-06T07:42:56;0.10;;;0.10;;
63801;SDS011;49949;43.060;25.624;2023-04-06T07:45:22;0.75;;;0.75;;
63801;SDS011;49949;43.060;25.624;2023-04-06T07:47:51;0.10;;;0.10;;
63801;SDS011;49949;43.060;25.624;2023-04-06T07:50:17;0.63;;;0.63;;
63801;SDS011;49949;43.060;25.624;2023-04-06T07:52:42;0.10;;;0.10;;
63801;SDS011;49949;43.060;25.624;2023-04-06T07:55:08;0.10;;;0.10;;
63801;SDS011;49949;43.060;25.624;2023-04-06T07:57:34;1.55;;;0.63;;
63801;SDS011;49949;43.060;25.624;2023-04-06T08:00:00;2.17;;;1.13;;
63801;SDS011;49949;43.060;25.624;2023-04-06T08:02:25;0.88;;;0.85;;
63801;SDS011;49949;43.060;25.624;2023-04-06T08:04:51;0.15;;;0.15;;
63801;SDS011;49949;43.060;25.624;2023-04-06T08:07:17;0.28;;;0.28;;
63801;SDS011;49949;43.060;25.624;2023-04-06T08:09:42;0.45;;;0.45;;
63801;SDS011;49949;43.060;25.624;2023-04-06T08:12:08;0.10;;;0.10;;
63801;SDS011;49949;43.060;25.624;2023-04-06T08:14:34;0.22;;;0.22;;
63801;SDS011;49949;43.060;25.624;2023-04-06T08:16:59;0.20;;;0.20;;
63801;SDS011;49949;43.060;25.624;2023-04-06T08:19:25;0.10;;;0.10;;
63801;SDS011;49949;43.060;25.624;2023-04-06T08:21:51;0.75;;;0.75;;
63801;SDS011;49949;43.060;25.624;2023-04-06T08:24:16;2.65;;;1.38;;
63801;SDS011;49949;43.060;25.624;2023-04-06T08:26:42;0.55;;;0.55;;
63801;SDS011;49949;43.060;25.624;2023-04-06T08:29:08;0.75;;;0.75;;
63801;SDS011;49949;43.060;25.624;2023-04-06T08:31:34;0.10;;;0.10;;
63801;SDS011;49949;43.060;25.624;2023-04-06T08:34:00;0.80;;;0.57;;
63801;SDS011;49949;43.060;25.624;2023-04-06T08:36:26;0.10;;;0.10;;
63801;SDS011;49949;43.060;25.624;2023-04-06T08:38:52;0.32;;;0.32;;
63801;SDS011;49949;43.060;25.624;2023-04-06T08:41:19;0.10;;;0.10;;
63801;SDS011;49949;43.060;25.624;2023-04-06T08:43:49;0.10;;;0.10;;
63801;SDS011;49949;43.060;25.624;2023-04-06T08:46:20;0.10;;;0.10;;
63801;SDS011;49949;43.060;25.624;2023-04-06T08:48:47;0.10;;;0.10;;
63801;SDS011;49949;43.060;25.624;2023-04-06T08:51:16;0.10;;;0.10;;
63801;SDS011;49949;43.060;25.624;2023-04-06T08:53:43;0.52;;;0.52;;
63801;SDS011;49949;43.060;25.624;2023-04-06T08:56:09;0.30;;;0.30;;
63801;SDS011;49949;43.060;25.624;2023-04-06T08:58:37;0.47;;;0.45;;
63801;SDS011;49949;43.060;25.624;2023-04-06T09:01:08;0.10;;;0.10;;
63801;SDS011;49949;43.060;25.624;2023-04-06T09:06:03;0.10;;;0.10;;
63801;SDS011;49949;43.060;25.624;2023-04-06T09:08:29;0.32;;;0.32;;
63801;SDS011;49949;43.060;25.624;2023-04-06T09:10:55;0.25;;;0.15;;
63801;SDS011;49949;43.060;25.624;2023-04-06T09:13:21;0.10;;;0.10;;
63801;SDS011;49949;43.060;25.624;2023-04-06T09:15:57;4.95;;;0.70;;
63801;SDS011;49949;43.060;25.624;2023-04-06T09:18:27;0.10;;;0.10;;
63801;SDS011;49949;43.060;25.624;2023-04-06T09:20:58;0.22;;;0.22;;
63801;SDS011;49949;43.060;25.624;2023-04-06T09:23:28;0.20;;;0.20;;
63801;SDS011;49949;43.060;25.624;2023-04-06T09:26:07;0.10;;;0.10;;
63801;SDS011;49949;43.060;25.624;2023-04-06T09:31:11;16.40;;;10.23;;
63801;SDS011;49949;43.060;25.624;2023-04-06T09:33:38;12.77;;;7.97;;
63801;SDS011;49949;43.060;25.624;2023-04-06T09:36:06;14.73;;;7.90;;
63801;SDS011;49949;43.060;25.624;2023-04-06T09:38:32;15.50;;;7.45;;
63801;SDS011;49949;43.060;25.624;2023-04-06T09:40:58;11.02;;;7.15;;
63801;SDS011;49949;43.060;25.624;2023-04-06T09:43:25;11.88;;;7.85;;
63801;SDS011;49949;43.060;25.624;2023-04-06T09:45:51;12.40;;;6.90;;
63801;SDS011;49949;43.060;25.624;2023-04-06T09:48:18;9.48;;;6.78;;
63801;SDS011;49949;43.060;25.624;2023-04-06T09:50:45;9.57;;;6.90;;
63801;SDS011;49949;43.060;25.624;2023-04-06T09:53:12;7.97;;;6.80;;
63801;SDS011;49949;43.060;25.624;2023-04-06T09:55:42;11.57;;;6.63;;
63801;SDS011;49949;43.060;25.624;2023-04-06T09:58:17;10.48;;;6.45;;
63801;SDS011;49949;43.060;25.624;2023-04-06T10:06:04;25.55;;;7.82;;
63801;SDS011;49949;43.060;25.624;2023-04-06T10:08:31;9.15;;;5.82;;
63801;SDS011;49949;43.060;25.624;2023-04-06T10:10:58;18.58;;;6.57;;
63801;SDS011;49949;43.060;25.624;2023-04-06T10:13:26;8.02;;;5.63;;
63801;SDS011;49949;43.060;25.624;2023-04-06T10:15:52;16.27;;;6.57;;
63801;SDS011;49949;43.060;25.624;2023-04-06T10:18:19;13.00;;;6.90;;
63801;SDS011;49949;43.060;25.624;2023-04-06T10:23:40;8.83;;;5.67;;
63801;SDS011;49949;43.060;25.624;2023-04-06T10:26:13;14.07;;;6.10;;
63801;SDS011;49949;43.060;25.624;2023-04-06T10:28:42;14.30;;;5.32;;
63801;SDS011;49949;43.060;25.624;2023-04-06T10:31:09;18.67;;;5.93;;
63801;SDS011;49949;43.060;25.624;2023-04-06T10:33:35;21.55;;;6.47;;
63801;SDS011;49949;43.060;25.624;2023-04-06T10:36:10;16.00;;;6.05;;
63801;SDS011;49949;43.060;25.624;2023-04-06T10:38:39;25.63;;;6.00;;
63801;SDS011;49949;43.060;25.624;2023-04-06T10:41:07;23.50;;;6.13;;
63801;SDS011;49949;43.060;25.624;2023-04-06T10:43:35;7.85;;;4.90;;
63801;SDS011;49949;43.060;25.624;2023-04-06T10:46:02;10.60;;;5.57;;
63801;SDS011;49949;43.060;25.624;2023-04-06T10:51:12;10.85;;;5.68;;
63801;SDS011;49949;43.060;25.624;2023-04-06T10:53:42;10.48;;;5.20;;
63801;SDS011;49949;43.060;25.624;2023-04-06T10:56:13;12.38;;;5.47;;
63801;SDS011;49949;43.060;25.624;2023-04-06T10:58:45;6.43;;;5.32;;
63801;SDS011;49949;43.060;25.624;2023-04-06T11:01:12;8.38;;;6.13;;
63801;SDS011;49949;43.060;25.624;2023-04-06T11:03:45;15.93;;;6.90;;
63801;SDS011;49949;43.060;25.624;2023-04-06T11:08:49;10.90;;;7.25;;
63801;SDS011;49949;43.060;25.624;2023-04-06T11:11:16;18.58;;;5.90;;
63801;SDS011;49949;43.060;25.624;2023-04-06T11:13:51;9.98;;;5.25;;
63801;SDS011;49949;43.060;25.624;2023-04-06T11:16:29;6.90;;;4.80;;
63801;SDS011;49949;43.060;25.624;2023-04-06T11:18:59;7.68;;;4.95;;
63801;SDS011;49949;43.060;25.624;2023-04-06T11:24:08;5.80;;;3.85;;
63801;SDS011;49949;43.060;25.624;2023-04-06T11:26:38;7.20;;;4.38;;
63801;SDS011;49949;43.060;25.624;2023-04-06T11:29:05;4.78;;;3.50;;
63801;SDS011;49949;43.060;25.624;2023-04-06T11:31:31;8.63;;;4.93;;
63801;SDS011;49949;43.060;25.624;2023-04-06T11:34:02;38.60;;;6.30;;
63801;SDS011;49949;43.060;25.624;2023-04-06T11:36:35;6.05;;;3.70;;
63801;SDS011;49949;43.060;25.624;2023-04-06T11:39:02;4.97;;;3.35;;
63801;SDS011;49949;43.060;25.624;2023-04-06T11:41:28;4.20;;;3.45;;
63801;SDS011;49949;43.060;25.624;2023-04-06T11:43:55;12.35;;;5.20;;
63801;SDS011;49949;43.060;25.624;2023-04-06T11:46:21;9.23;;;3.88;;
63801;SDS011;49949;43.060;25.624;2023-04-06T11:48:47;20.38;;;4.00;;
63801;SDS011;49949;43.060;25.624;2023-04-06T11:51:12;14.95;;;4.45;;
63801;SDS011;49949;43.060;25.624;2023-04-06T11:53:47;31.73;;;6.85;;
63801;SDS011;49949;43.060;25.624;2023-04-06T11:56:22;19.58;;;4.40;;
63801;SDS011;49949;43.060;25.624;2023-04-06T11:58:50;168.65;;;13.73;;
63801;SDS011;49949;43.060;25.624;2023-04-06T12:01:16;4.43;;;3.63;;
63801;SDS011;49949;43.060;25.624;2023-04-06T12:03:41;5.80;;;3.28;;
63801;SDS011;49949;43.060;25.624;2023-04-06T12:06:07;6.32;;;3.92;;
63801;SDS011;49949;43.060;25.624;2023-04-06T12:08:33;4.63;;;3.55;;
63801;SDS011;49949;43.060;25.624;2023-04-06T12:10:58;4.60;;;3.50;;
63801;SDS011;49949;43.060;25.624;2023-04-06T12:13:24;8.38;;;3.83;;
63801;SDS011;49949;43.060;25.624;2023-04-06T12:15:50;7.53;;;4.40;;
63801;SDS011;49949;43.060;25.624;2023-04-06T12:18:16;23.35;;;5.05;;
63801;SDS011;49949;43.060;25.624;2023-04-06T12:20:41;8.88;;;3.83;;
63801;SDS011;49949;43.060;25.624;2023-04-06T12:23:07;7.57;;;4.47;;
63801;SDS011;49949;43.060;25.624;2023-04-06T12:25:32;6.75;;;4.45;;
63801;SDS011;49949;43.060;25.624;2023-04-06T12:27:58;7.95;;;3.67;;
63801;SDS011;49949;43.060;25.624;2023-04-06T12:30:24;8.38;;;3.70;;
63801;SDS011;49949;43.060;25.624;2023-04-06T12:32:50;11.10;;;3.85;;
63801;SDS011;49949;43.060;25.624;2023-04-06T12:35:16;6.03;;;4.10;;
63801;SDS011;49949;43.060;25.624;2023-04-06T12:37:41;7.07;;;4.28;;
63801;SDS011;49949;43.060;25.624;2023-04-06T12:40:07;5.88;;;3.90;;
63801;SDS011;49949;43.060;25.624;2023-04-06T12:42:35;21.92;;;5.13;;
63801;SDS011;49949;43.060;25.624;2023-04-06T12:45:01;7.10;;;4.25;;
63801;SDS011;49949;43.060;25.624;2023-04-06T12:47:27;13.45;;;3.95;;
63801;SDS011;49949;43.060;25.624;2023-04-06T12:49:53;7.25;;;4.28;;
63801;SDS011;49949;43.060;25.624;2023-04-06T12:52:19;8.73;;;4.18;;
63801;SDS011;49949;43.060;25.624;2023-04-06T12:54:45;6.40;;;4.13;;
63801;SDS011;49949;43.060;25.624;2023-04-06T12:57:12;6.90;;;3.95;;
63801;SDS011;49949;43.060;25.624;2023-04-06T12:59:38;5.95;;;3.63;;
63801;SDS011;49949;43.060;25.624;2023-04-06T13:02:09;28.67;;;5.22;;
63801;SDS011;49949;43.060;25.624;2023-04-06T13:04:35;6.45;;;4.38;;
63801;SDS011;49949;43.060;25.624;2023-04-06T13:07:01;4.63;;;3.60;;
63801;SDS011;49949;43.060;25.624;2023-04-06T13:09:27;5.25;;;3.47;;
63801;SDS011;49949;43.060;25.624;2023-04-06T13:11:52;18.70;;;4.85;;
63801;SDS011;49949;43.060;25.624;2023-04-06T13:14:18;8.68;;;3.90;;
63801;SDS011;49949;43.060;25.624;2023-04-06T13:16:44;4.90;;;3.95;;
63801;SDS011;49949;43.060;25.624;2023-04-06T13:19:09;11.05;;;3.92;;
63801;SDS011;49949;43.060;25.624;2023-04-06T13:21:35;9.95;;;4.13;;
63801;SDS011;49949;43.060;25.624;2023-04-06T13:24:01;6.43;;;4.32;;
63801;SDS011;49949;43.060;25.624;2023-04-06T13:26:27;4.65;;;3.13;;
63801;SDS011;49949;43.060;25.624;2023-04-06T13:28:53;4.78;;;3.10;;
63801;SDS011;49949;43.060;25.624;2023-04-06T13:31:21;6.43;;;3.28;;
63801;SDS011;49949;43.060;25.624;2023-04-06T13:33:46;4.35;;;2.90;;
63801;SDS011;49949;43.060;25.624;2023-04-06T13:36:12;4.10;;;2.47;;
63801;SDS011;49949;43.060;25.624;2023-04-06T13:38:38;8.50;;;3.45;;
63801;SDS011;49949;43.060;25.624;2023-04-06T13:41:04;5.95;;;3.13;;
63801;SDS011;49949;43.060;25.624;2023-04-06T13:43:30;14.57;;;3.65;;
63801;SDS011;49949;43.060;25.624;2023-04-06T13:45:57;7.00;;;3.00;;
63801;SDS011;49949;43.060;25.624;2023-04-06T13:48:24;4.05;;;2.65;;
63801;SDS011;49949;43.060;25.624;2023-04-06T13:50:51;2.97;;;2.67;;
63801;SDS011;49949;43.060;25.624;2023-04-06T13:53:17;9.73;;;2.67;;
63801;SDS011;49949;43.060;25.624;2023-04-06T13:55:43;33.13;;;4.25;;
63801;SDS011;49949;43.060;25.624;2023-04-06T13:58:09;2.58;;;2.03;;
63801;SDS011;49949;43.060;25.624;2023-04-06T14:00:34;18.30;;;4.68;;
63801;SDS011;49949;43.060;25.624;2023-04-06T14:03:01;24.15;;;4.15;;
63801;SDS011;49949;43.060;25.624;2023-04-06T14:05:31;8.43;;;3.25;;
63801;SDS011;49949;43.060;25.624;2023-04-06T14:07:58;14.15;;;3.60;;
63801;SDS011;49949;43.060;25.624;2023-04-06T14:10:23;41.03;;;5.32;;
63801;SDS011;49949;43.060;25.624;2023-04-06T14:12:52;10.32;;;5.00;;
63801;SDS011;49949;43.060;25.624;2023-04-06T14:15:18;13.80;;;3.45;;
63801;SDS011;49949;43.060;25.624;2023-04-06T14:17:44;19.70;;;3.80;;
63801;SDS011;49949;43.060;25.624;2023-04-06T14:20:10;17.63;;;2.90;;
63801;SDS011;49949;43.060;25.624;2023-04-06T14:22:39;49.40;;;6.00;;
63801;SDS011;49949;43.060;25.624;2023-04-06T14:25:06;15.63;;;4.50;;
63801;SDS011;49949;43.060;25.624;2023-04-06T14:27:32;10.57;;;3.97;;
63801;SDS011;49949;43.060;25.624;2023-04-06T14:29:58;6.05;;;2.72;;
63801;SDS011;49949;43.060;25.624;2023-04-06T14:32:23;7.00;;;3.53;;
63801;SDS011;49949;43.060;25.624;2023-04-06T14:34:49;10.75;;;4.40;;
63801;SDS011;49949;43.060;25.624;2023-04-06T14:37:15;10.25;;;4.88;;
63801;SDS011;49949;43.060;25.624;2023-04-06T14:39:42;30.13;;;5.45;;
63801;SDS011;49949;43.060;25.624;2023-04-06T14:42:08;39.33;;;6.20;;
63801;SDS011;49949;43.060;25.624;2023-04-06T14:44:34;46.53;;;5.25;;
63801;SDS011;49949;43.060;25.624;2023-04-06T14:47:01;21.00;;;4.72;;
63801;SDS011;49949;43.060;25.624;2023-04-06T14:49:28;10.05;;;5.10;;